METAR stanice u blizini

 

LHUD - Szeged, Hungary
Ažurirano: 20/04/2019 13:45
NOT Current
Vedro
Vedro
 Pravac vetra SI
Vetar: SI 11 km/h
Temperatura: 19°C
Tačka rose: -4°C
Vlažnost: 21%
Pritisak: 1028 hPa
Pregled: Vedro
Vidljivost: greater than 10 km
2019/04/20 11:45 LHUD 201145Z 04006KT CAVOK 19/M04 Q1028
LHKE - Kecskemet, Hungary
Ažurirano: 20/04/2019 17:15
Vedro
Vedro
 Pravac vetra SSI
Vetar: SSI 7 km/h
Temperatura: 21°C
Tačka rose: -6°C
Vlažnost: 16%
Pritisak: 1025 hPa
Pregled: Vedro
Vidljivost: greater than 10 km
2019/04/20 15:15 LHKE 201515Z 03004KT CAVOK 21/M06 Q1025 NOSIG RMK BLU
LDOS - Osijek, Croatia
Ažurirano: 20/04/2019 17:00
Vedro
Vedro
 Pravac vetra I
Vetar: I 17 km/h
Temperatura: 19°C
Tačka rose: -2°C
Vlažnost: 24%
Pritisak: 1026 hPa
Pregled: Vedro
Vidljivost: greater than 10 km
2019/04/20 15:00 LDOS 201500Z 08009KT CAVOK 19/M02 Q1026
 
LYBE - Beograd / Surcin, Serbia
Ažurirano: 20/04/2019 17:00
Vedro
Vedro
 Pravac vetra SI
Vetar: SI 11 km/h
Temperatura: 18°C
Tačka rose: -1°C
Vlažnost: 28%
Pritisak: 1026 hPa
Pregled: Vedro
Vidljivost: greater than 10 km
2019/04/20 15:00 LYBE 201500Z 05006KT 360V080 CAVOK 18/M01 Q1026 NOSIG
LYVR - Vrsac, Serbia
Ažurirano: 20/04/2019 17:00
Few clouds
Few clouds
 Pravac vetra S
Vetar: S 19 km/h
Temperatura: 19°C
Tačka rose: -2°C
Vlažnost: 24%
Pritisak: 1026 hPa
Oblaci: Few clouds
Vidljivost: 10 km
2019/04/20 15:00 LYVR 201500Z 35010KT 310V040 9999 FEW040 19/M02 Q1026 NOSIG
LRTR - Timisoara, Romania
Ažurirano: 20/04/2019 17:00
Vedro
Vedro
 Pravac vetra SI
Vetar: SI 15 km/h
Temperatura: 19°C
Tačka rose: -3°C
Vlažnost: 22%
Pritisak: 1025 hPa
Pregled: Vedro
Vidljivost: greater than 10 km
2019/04/20 15:00 LRTR 201500Z 04008KT CAVOK 19/M03 Q1025 NOSIG